Time;durP1;ratioP1;P1;durP2;ratioP2;P2;SDS_P1;SDS_P2;PMS_P1;PMS_P2;Temp;Humidity;BMP_temperature;BMP_pressure;BME280_temperature;BME280_humidity;BME280_pressure;Samples;Min_cycle;Max_cycle;Signal;HPM_P1;HPM_P2
2024/01/28 00:02:34;;;;;;;12.00;4.50;;;;;;;1.81;85.31;102056.97;214138;1268;61267;-71
2024/01/28 00:07:27;;;;;;;13.00;3.80;;;;;;;1.82;85.19;102059.46;214101;1272;65123;-71
2024/01/28 00:12:20;;;;;;;13.00;4.60;;;;;;;1.82;85.33;102062.20;214108;1269;61141;-71
2024/01/28 00:17:13;;;;;;;11.80;3.90;;;;;;;1.83;85.01;102066.52;214087;1268;61248;-72
2024/01/28 00:22:06;;;;;;;8.40;4.20;;;;;;;1.83;85.00;102079.35;213959;1268;61275;-72
2024/01/28 00:26:58;;;;;;;11.80;4.30;;;;;;;1.84;84.91;102093.08;213940;1271;61408;-71
2024/01/28 00:31:51;;;;;;;12.90;4.40;;;;;;;1.84;85.12;102098.59;214113;1268;61319;-71
2024/01/28 00:36:44;;;;;;;17.10;4.50;;;;;;;1.85;85.24;102104.83;214095;1270;62023;-71
2024/01/28 00:41:37;;;;;;;14.90;5.30;;;;;;;1.85;85.20;102111.33;214007;1268;66212;-71
2024/01/28 00:46:31;;;;;;;11.40;3.90;;;;;;;1.86;85.41;102123.37;214162;1268;61340;-72
2024/01/28 00:51:25;;;;;;;14.30;4.50;;;;;;;1.87;84.99;102127.91;214217;1268;61389;-72
2024/01/28 00:56:18;;;;;;;11.50;4.50;;;;;;;1.88;84.96;102129.64;214181;1268;67056;-71
2024/01/28 01:01:11;;;;;;;14.30;5.30;;;;;;;1.87;85.28;102136.09;214232;1268;61315;-71
2024/01/28 01:06:05;;;;;;;12.80;4.70;;;;;;;1.88;85.18;102142.69;214069;1272;61551;-72
2024/01/28 01:11:03;;;;;;;16.50;5.00;;;;;;;1.90;85.42;102151.36;214144;1270;71177;-71
2024/01/28 01:15:56;;;;;;;20.10;6.70;;;;;;;1.92;85.55;102144.77;214081;1268;61386;-71
2024/01/28 01:20:53;;;;;;;14.10;5.40;;;;;;;1.93;85.73;102142.98;216087;1260;59254;31
2024/01/28 01:25:46;;;;;;;12.60;4.00;;;;;;;1.94;85.65;102148.35;214129;1268;61359;-71
2024/01/28 01:30:39;;;;;;;15.60;6.60;;;;;;;1.95;85.59;102150.48;214071;1268;61402;-72
2024/01/28 01:35:32;;;;;;;17.30;5.30;;;;;;;1.94;85.47;102157.75;213957;1268;184182;-72
2024/01/28 01:40:25;;;;;;;15.40;7.30;;;;;;;1.93;85.82;102161.46;214163;1268;61348;-71
2024/01/28 01:45:18;;;;;;;18.20;6.20;;;;;;;1.89;85.49;102162.20;214147;1268;61355;-72
2024/01/28 01:50:12;;;;;;;17.90;5.70;;;;;;;1.83;85.39;102165.19;214162;1268;62829;-72
2024/01/28 01:55:06;;;;;;;16.70;6.00;;;;;;;1.74;85.75;102157.68;214205;1268;73673;-71
2024/01/28 01:59:59;;;;;;;15.10;6.20;;;;;;;1.68;85.69;102163.21;214050;1270;72386;-71
2024/01/28 02:04:52;;;;;;;20.70;5.90;;;;;;;1.63;85.87;102162.83;213949;1268;61294;-72
2024/01/28 02:09:45;;;;;;;19.10;6.80;;;;;;;1.54;85.79;102167.27;214047;1269;61306;-71
2024/01/28 02:14:38;;;;;;;12.60;5.30;;;;;;;1.44;85.82;102169.06;214015;1268;61466;-71
2024/01/28 02:19:31;;;;;;;16.30;6.00;;;;;;;1.36;85.91;102165.00;214126;1271;74666;-71
2024/01/28 02:30:20;;;;;;;17.70;5.90;;;;;;;1.28;86.63;102171.41;212740;1279;61307;-71
2024/01/28 02:35:12;;;;;;;17.00;6.80;;;;;;;1.27;86.38;102172.85;212756;1279;67254;-71
2024/01/28 02:40:06;;;;;;;12.70;6.00;;;;;;;1.25;86.39;102173.20;212779;1276;61253;-71
2024/01/28 02:44:59;;;;;;;14.30;5.50;;;;;;;1.23;86.59;102183.81;212819;1279;72492;-71
2024/01/28 02:49:52;;;;;;;11.50;4.70;;;;;;;1.22;86.66;102191.97;212693;1277;71377;-71
2024/01/28 02:54:44;;;;;;;16.10;5.30;;;;;;;1.21;86.60;102203.68;212730;1277;61288;-71
2024/01/28 02:59:37;;;;;;;12.60;5.10;;;;;;;1.21;86.60;102214.93;212735;1276;61511;-71
2024/01/28 03:04:30;;;;;;;18.70;6.30;;;;;;;1.21;86.92;102222.95;212763;1275;61319;-71
2024/01/28 03:09:24;;;;;;;14.40;5.90;;;;;;;1.22;86.82;102233.27;212678;1276;61316;-72
2024/01/28 03:14:17;;;;;;;19.40;5.80;;;;;;;1.24;87.06;102239.90;212717;1276;71382;-72
2024/01/28 03:19:10;;;;;;;14.30;6.50;;;;;;;1.25;87.11;102252.96;212711;1277;61352;-72
2024/01/28 03:24:03;;;;;;;22.00;6.20;;;;;;;1.27;87.11;102259.79;212724;1279;61329;-72
2024/01/28 03:28:56;;;;;;;13.50;6.00;;;;;;;1.29;87.18;102253.85;212654;1277;61294;-72
2024/01/28 03:33:51;;;;;;;20.90;7.10;;;;;;;1.30;86.77;102249.77;212699;1276;74158;-71
2024/01/28 03:38:44;;;;;;;22.40;5.30;;;;;;;1.31;87.28;102257.90;212677;1277;61303;-72
2024/01/28 03:43:37;;;;;;;14.10;6.50;;;;;;;1.33;87.21;102262.19;212631;1277;61323;-72
2024/01/28 03:48:29;;;;;;;13.20;6.30;;;;;;;1.34;87.21;102260.71;212723;1276;61436;-72
2024/01/28 03:53:23;;;;;;;17.00;6.60;;;;;;;1.35;87.08;102261.42;212675;1276;61307;-72
2024/01/28 03:58:15;;;;;;;16.10;5.80;;;;;;;1.31;86.94;102258.74;212679;1277;61511;-72
2024/01/28 04:03:08;;;;;;;13.40;6.40;;;;;;;1.30;86.95;102260.70;212716;1277;61332;-72
2024/01/28 04:08:02;;;;;;;18.60;7.00;;;;;;;1.31;87.07;102259.95;212654;1277;61530;-71
2024/01/28 04:12:54;;;;;;;15.80;7.40;;;;;;;1.31;86.84;102258.44;212737;1275;61867;-71
2024/01/28 04:17:47;;;;;;;15.40;5.70;;;;;;;1.32;86.95;102264.97;212621;1277;61380;-72
2024/01/28 04:22:41;;;;;;;20.40;6.50;;;;;;;1.34;87.41;102265.47;212734;1276;61284;-72
2024/01/28 04:27:34;;;;;;;17.40;6.20;;;;;;;1.34;87.13;102273.02;212789;1276;61294;-72
2024/01/28 04:32:27;;;;;;;20.30;6.50;;;;;;;1.36;87.27;102277.92;212666;1277;61307;-72
2024/01/28 04:37:19;;;;;;;18.00;7.70;;;;;;;1.35;87.19;102284.74;212727;1279;61304;-72
2024/01/28 04:42:12;;;;;;;16.40;6.70;;;;;;;1.35;87.25;102290.98;212761;1277;61483;-72
2024/01/28 04:47:06;;;;;;;14.70;6.20;;;;;;;1.36;87.45;102297.11;212758;1276;61355;-72
2024/01/28 04:51:59;;;;;;;15.00;6.10;;;;;;;1.39;87.76;102304.35;212725;1276;61259;-72
2024/01/28 04:56:51;;;;;;;20.60;8.00;;;;;;;1.40;87.62;102316.39;212735;1276;61733;-72
2024/01/28 05:01:44;;;;;;;13.30;6.40;;;;;;;1.41;87.64;102324.96;212696;1276;61992;-72
2024/01/28 05:06:37;;;;;;;19.90;6.30;;;;;;;1.43;87.84;102339.50;212699;1277;61332;-72
2024/01/28 05:11:33;;;;;;;11.80;4.80;;;;;;;1.45;87.93;102341.54;212651;1276;61397;-72
2024/01/28 05:16:27;;;;;;;14.70;6.40;;;;;;;1.46;88.20;102347.60;212675;1276;71125;-72
2024/01/28 05:21:20;;;;;;;16.50;5.80;;;;;;;1.48;87.90;102353.79;212708;1279;61895;-72
2024/01/28 05:26:14;;;;;;;13.30;5.40;;;;;;;1.50;88.02;102351.02;212684;1279;66843;-71
2024/01/28 05:31:08;;;;;;;19.20;6.80;;;;;;;1.51;88.23;102347.88;212689;1276;61422;-71
2024/01/28 05:36:01;;;;;;;18.40;6.10;;;;;;;1.54;88.52;102350.10;212707;1279;75447;-72
2024/01/28 05:40:54;;;;;;;16.00;6.20;;;;;;;1.56;88.70;102345.14;212610;1279;71582;-72
2024/01/28 05:45:47;;;;;;;12.00;6.10;;;;;;;1.60;88.99;102348.73;212769;1276;61278;-71
2024/01/28 05:50:40;;;;;;;13.20;6.30;;;;;;;1.63;88.77;102361.23;212756;1279;65899;-72
2024/01/28 05:55:33;;;;;;;18.20;6.30;;;;;;;1.65;89.12;102363.29;212726;1279;61336;-72
2024/01/28 06:00:25;;;;;;;10.00;6.10;;;;;;;1.67;89.19;102364.17;212750;1279;61316;-72
2024/01/28 06:05:18;;;;;;;19.80;5.80;;;;;;;1.69;89.45;102370.84;212788;1279;61352;-72
2024/01/28 06:10:11;;;;;;;14.00;6.90;;;;;;;1.73;89.57;102377.62;212759;1276;61252;-71
2024/01/28 06:15:07;;;;;;;12.90;6.00;;;;;;;1.75;89.80;102386.68;212730;1277;61313;-72
2024/01/28 06:20:01;;;;;;;12.80;5.10;;;;;;;1.80;90.08;102400.18;212823;1278;61288;-72
2024/01/28 06:24:54;;;;;;;10.40;4.30;;;;;;;1.83;90.03;102400.27;212915;1279;61404;-72
2024/01/28 06:29:47;;;;;;;14.00;5.60;;;;;;;1.87;90.34;102397.71;212765;1277;61322;-71
2024/01/28 06:34:40;;;;;;;11.70;6.20;;;;;;;1.92;90.54;102401.45;212740;1276;61292;-71
2024/01/28 06:39:33;;;;;;;9.70;5.70;;;;;;;1.96;90.53;102404.34;212799;1279;65856;-71
2024/01/28 06:44:26;;;;;;;11.90;6.00;;;;;;;1.99;91.04;102409.77;212771;1279;61641;-71
2024/01/28 06:49:20;;;;;;;12.50;5.60;;;;;;;2.03;90.81;102414.70;212759;1279;61301;-71
2024/01/28 06:54:13;;;;;;;11.30;6.70;;;;;;;2.08;90.83;102411.00;212791;1276;72290;-71
2024/01/28 06:59:07;;;;;;;12.20;6.90;;;;;;;2.13;91.35;102413.56;212795;1276;61366;-72
2024/01/28 07:04:00;;;;;;;13.60;6.70;;;;;;;2.16;91.39;102413.66;212820;1279;66952;-70
2024/01/28 07:08:53;;;;;;;9.30;5.70;;;;;;;2.21;91.31;102418.48;212720;1276;61295;-71
2024/01/28 07:13:46;;;;;;;11.90;6.10;;;;;;;2.24;91.52;102423.89;212632;1276;62979;-71
2024/01/28 07:18:39;;;;;;;16.50;8.00;;;;;;;2.29;91.74;102425.59;212715;1279;62926;-71
2024/01/28 07:23:32;;;;;;;12.70;7.20;;;;;;;2.34;91.76;102424.75;212756;1276;61464;-71
2024/01/28 07:28:25;;;;;;;13.60;7.00;;;;;;;2.38;91.65;102424.04;212752;1276;65976;-71
2024/01/28 07:33:18;;;;;;;11.80;7.10;;;;;;;2.48;91.71;102430.45;212751;1278;61371;-71
2024/01/28 07:38:11;;;;;;;9.80;6.80;;;;;;;2.57;91.70;102434.46;212766;1279;62015;-71
2024/01/28 07:43:03;;;;;;;11.00;6.00;;;;;;;2.63;91.35;102433.34;212705;1276;61400;-71
2024/01/28 07:47:56;;;;;;;9.70;6.70;;;;;;;2.78;91.50;102434.29;212778;1277;61307;-71
2024/01/28 07:52:49;;;;;;;11.40;7.40;;;;;;;2.93;91.56;102431.69;212763;1277;61383;-71
2024/01/28 07:57:42;;;;;;;10.80;6.60;;;;;;;2.96;91.38;102435.14;212780;1276;61708;-71
2024/01/28 08:02:35;;;;;;;9.60;6.40;;;;;;;2.99;91.51;102437.14;212720;1277;61444;-70
2024/01/28 08:07:28;;;;;;;8.80;6.60;;;;;;;3.05;91.52;102446.80;212704;1276;61477;-71
2024/01/28 08:12:21;;;;;;;12.10;7.60;;;;;;;3.21;91.14;102448.30;212831;1276;61438;-71
2024/01/28 08:17:14;;;;;;;11.60;5.90;;;;;;;3.28;91.21;102459.80;212883;1276;61289;-71
2024/01/28 08:22:07;;;;;;;8.60;6.90;;;;;;;3.40;91.43;102464.50;212811;1276;61768;-71
2024/01/28 08:27:03;;;;;;;9.90;6.50;;;;;;;3.56;91.20;102469.23;212819;1279;73358;-71
2024/01/28 08:31:57;;;;;;;10.20;6.20;;;;;;;3.70;90.83;102472.50;212727;1279;61386;-71
2024/01/28 08:36:51;;;;;;;10.20;7.10;;;;;;;3.79;90.85;102475.56;212745;1277;61219;-70
2024/01/28 08:41:44;;;;;;;8.30;6.20;;;;;;;3.95;90.67;102476.52;212801;1277;65614;-71
2024/01/28 08:46:40;;;;;;;8.00;5.70;;;;;;;4.17;90.11;102478.11;212545;1277;61428;-71
2024/01/28 08:51:33;;;;;;;13.50;6.30;;;;;;;4.33;89.91;102472.70;212773;1276;74663;-71
2024/01/28 08:56:26;;;;;;;6.90;4.70;;;;;;;4.51;89.75;102484.39;212584;1276;61461;-71
2024/01/28 09:01:18;;;;;;;6.10;4.80;;;;;;;4.70;89.01;102489.31;212857;1276;61426;-71
2024/01/28 09:06:11;;;;;;;10.00;5.10;;;;;;;4.92;88.95;102496.15;212752;1276;61347;-71
2024/01/28 09:11:04;;;;;;;5.70;3.90;;;;;;;5.13;88.51;102493.30;212638;1276;61460;-71
2024/01/28 09:15:57;;;;;;;7.70;3.70;;;;;;;5.29;88.10;102498.66;212751;1276;61403;-71
2024/01/28 09:20:51;;;;;;;5.80;3.60;;;;;;;5.57;87.62;102493.63;212678;1276;61393;-71
2024/01/28 09:25:43;;;;;;;5.40;3.50;;;;;;;5.50;87.58;102497.65;212758;1276;61332;-71
2024/01/28 09:30:36;;;;;;;6.00;3.30;;;;;;;5.33;88.02;102495.52;212769;1276;61300;-71
2024/01/28 09:35:29;;;;;;;4.90;3.20;;;;;;;5.50;87.64;102492.09;212724;1276;64603;-71
2024/01/28 09:40:22;;;;;;;6.40;3.20;;;;;;;5.86;86.95;102489.52;212756;1276;61281;-71
2024/01/28 09:45:17;;;;;;;4.40;3.60;;;;;;;6.02;86.72;102495.94;212668;1279;61438;-72
2024/01/28 09:50:12;;;;;;;3.60;3.30;;;;;;;6.09;86.74;102501.70;212703;1276;61402;-72
2024/01/28 09:55:05;;;;;;;3.50;2.60;;;;;;;5.96;86.27;102505.98;212565;1277;66866;-72
2024/01/28 09:59:59;;;;;;;8.90;3.20;;;;;;;5.86;86.21;102505.14;212726;1278;61296;-71
2024/01/28 10:04:52;;;;;;;4.10;3.10;;;;;;;6.02;86.16;102507.77;212662;1275;75134;-72
2024/01/28 10:09:45;;;;;;;3.00;2.50;;;;;;;6.01;85.91;102505.32;212703;1279;61300;-72
2024/01/28 10:14:38;;;;;;;3.00;2.80;;;;;;;5.85;85.88;102507.48;212713;1276;61240;-72
2024/01/28 10:19:31;;;;;;;5.00;2.60;;;;;;;5.50;86.12;102515.38;212658;1276;65187;-72
2024/01/28 10:24:28;;;;;;;4.20;2.90;;;;;;;5.24;86.50;102522.75;212739;1275;61459;-72
2024/01/28 10:29:23;;;;;;;5.90;3.20;;;;;;;5.22;86.74;102528.13;212648;1276;74635;-71
2024/01/28 10:34:17;;;;;;;4.00;2.70;;;;;;;5.59;86.69;102522.50;212708;1279;72345;-72
2024/01/28 10:39:11;;;;;;;4.00;3.00;;;;;;;6.04;86.48;102521.30;212669;1275;61406;-71
2024/01/28 10:44:08;;;;;;;4.70;2.70;;;;;;;6.25;85.96;102524.69;212655;1275;65998;-71
2024/01/28 10:49:05;;;;;;;5.20;2.90;;;;;;;6.21;85.79;102523.40;212713;1276;61301;-72
2024/01/28 10:54:00;;;;;;;5.10;3.40;;;;;;;6.25;85.67;102526.80;212687;1276;73867;-72
2024/01/28 10:58:53;;;;;;;6.20;3.10;;;;;;;6.41;84.86;102527.46;212622;1277;72698;-72
2024/01/28 11:03:46;;;;;;;3.80;2.40;;;;;;;6.34;85.13;102530.98;212589;1276;61351;-72
2024/01/28 11:08:39;;;;;;;3.50;1.80;;;;;;;6.18;85.13;102533.54;212670;1276;65871;-72
2024/01/28 11:13:33;;;;;;;2.80;2.40;;;;;;;6.01;85.26;102540.08;212699;1276;61422;-72
2024/01/28 11:18:30;;;;;;;4.90;3.30;;;;;;;5.85;85.24;102545.66;212711;1276;74541;-72
2024/01/28 11:23:23;;;;;;;3.90;2.10;;;;;;;5.68;85.21;102543.41;212730;1276;73349;-71
2024/01/28 11:28:16;;;;;;;4.80;2.40;;;;;;;5.54;85.17;102550.20;212756;1276;61409;-72
2024/01/28 11:33:11;;;;;;;5.80;2.40;;;;;;;5.42;85.03;102553.70;212619;1276;61451;-72
2024/01/28 11:38:53;;;;;;;3.60;2.30;;;;;;;5.36;85.21;102556.09;212527;1275;61403;-72
2024/01/28 11:43:46;;;;;;;7.30;2.60;;;;;;;5.36;85.42;102560.02;211639;1280;74719;-71
2024/01/28 11:48:42;;;;;;;4.30;2.60;;;;;;;5.32;85.66;102564.56;211540;1280;61468;-72
2024/01/28 11:53:35;;;;;;;4.20;2.70;;;;;;;5.25;85.40;102560.15;211399;1280;61294;-72
2024/01/28 11:58:28;;;;;;;4.60;2.40;;;;;;;5.21;85.45;102559.70;211693;1282;61317;-72
2024/01/28 12:03:21;;;;;;;4.90;2.50;;;;;;;5.21;85.65;102558.97;211727;1280;61382;-73
2024/01/28 12:08:24;;;;;;;4.70;2.80;;;;;;;5.17;85.45;102569.36;211721;1279;61326;-72
2024/01/28 12:13:17;;;;;;;3.50;2.40;;;;;;;5.14;85.34;102571.05;212112;1276;72833;-72
2024/01/28 12:18:10;;;;;;;4.50;3.50;;;;;;;5.14;85.55;102580.15;212777;1276;61372;-72
2024/01/28 12:23:04;;;;;;;6.70;3.90;;;;;;;5.09;85.71;102578.61;212785;1275;61679;-72
2024/01/28 12:27:57;;;;;;;5.70;3.90;;;;;;;5.06;85.61;102580.10;212652;1276;61297;-73
2024/01/28 12:32:51;;;;;;;5.10;3.20;;;;;;;5.04;85.78;102570.72;212773;1276;75568;-72
2024/01/28 12:37:44;;;;;;;4.30;3.90;;;;;;;5.06;85.93;102578.27;212910;1276;72650;-72
2024/01/28 12:42:39;;;;;;;6.30;3.60;;;;;;;5.06;85.88;102575.48;212713;1275;61304;-73
2024/01/28 12:47:33;;;;;;;7.20;4.10;;;;;;;5.05;86.04;102571.64;212754;1277;66082;-72
2024/01/28 12:52:25;;;;;;;6.20;3.50;;;;;;;5.05;86.00;102569.91;212716;1276;61304;-72
2024/01/28 12:57:18;;;;;;;6.30;4.60;;;;;;;5.03;85.93;102566.84;212796;1275;61378;-72
2024/01/28 13:02:12;;;;;;;6.10;4.30;;;;;;;5.00;85.89;102566.98;212759;1276;61393;-72
2024/01/28 13:07:05;;;;;;;8.90;5.90;;;;;;;4.97;86.11;102569.05;212705;1276;61281;-72
2024/01/28 13:11:58;;;;;;;6.80;5.50;;;;;;;4.94;86.17;102571.59;212748;1275;61137;-72
2024/01/28 13:16:51;;;;;;;8.30;5.60;;;;;;;4.90;86.15;102576.67;212838;1276;61304;-72
2024/01/28 13:21:44;;;;;;;9.40;6.30;;;;;;;4.86;86.18;102580.11;212749;1276;61407;-72
2024/01/28 13:26:37;;;;;;;9.20;6.90;;;;;;;4.82;86.35;102583.08;212789;1276;61501;-72
2024/01/28 13:31:30;;;;;;;11.10;7.50;;;;;;;4.78;86.42;102585.40;212821;1276;61412;-72
2024/01/28 13:36:23;;;;;;;12.70;8.00;;;;;;;4.76;86.66;102590.79;212680;1276;155418;-72
2024/01/28 13:41:16;;;;;;;11.10;8.90;;;;;;;4.73;86.72;102594.02;212790;1277;61266;-72
2024/01/28 13:46:09;;;;;;;14.40;9.00;;;;;;;4.65;86.67;102586.39;212803;1279;61455;-72
2024/01/28 13:51:02;;;;;;;14.70;8.80;;;;;;;4.60;86.70;102588.62;212737;1275;71971;-72
2024/01/28 13:55:55;;;;;;;13.00;9.30;;;;;;;4.58;87.04;102593.12;212851;1276;61319;-72
2024/01/28 14:00:48;;;;;;;14.80;8.70;;;;;;;4.55;87.02;102596.02;212869;1275;61899;-72
2024/01/28 14:05:44;;;;;;;15.50;10.40;;;;;;;4.51;87.10;102590.77;212648;1276;61457;-72
2024/01/28 14:10:40;;;;;;;13.80;10.10;;;;;;;4.47;87.18;102596.11;212549;1276;74765;-72
2024/01/28 14:15:37;;;;;;;13.60;10.60;;;;;;;4.45;87.20;102594.43;212717;1276;73657;-72
2024/01/28 14:20:31;;;;;;;15.00;10.60;;;;;;;4.42;87.20;102593.36;212820;1275;61297;-72
2024/01/28 14:25:23;;;;;;;12.60;9.20;;;;;;;4.40;87.28;102594.77;212833;1276;61281;-72
2024/01/28 14:30:16;;;;;;;13.60;10.00;;;;;;;4.36;87.29;102594.98;212849;1276;61437;-72
2024/01/28 14:35:09;;;;;;;14.20;9.40;;;;;;;4.32;87.46;102594.71;212757;1276;61323;-72
2024/01/28 14:40:02;;;;;;;14.90;10.10;;;;;;;4.30;87.58;102598.45;212860;1276;61329;-73
2024/01/28 14:44:55;;;;;;;16.10;10.20;;;;;;;4.27;87.75;102599.80;212877;1276;61624;-73
2024/01/28 14:49:48;;;;;;;13.40;9.70;;;;;;;4.24;87.70;102596.33;212828;1274;61316;-72
2024/01/28 14:54:41;;;;;;;13.90;10.00;;;;;;;4.20;87.76;102599.30;212704;1276;61188;-72
2024/01/28 14:59:37;;;;;;;13.60;9.90;;;;;;;4.17;87.91;102597.59;212465;1276;61323;-73
2024/01/28 15:04:30;;;;;;;11.40;9.00;;;;;;;4.15;87.90;102600.16;212762;1276;73559;-72
2024/01/28 15:09:23;;;;;;;15.90;10.30;;;;;;;4.10;88.03;102601.54;212823;1276;61460;-72
2024/01/28 15:14:18;;;;;;;13.80;8.50;;;;;;;4.06;88.19;102600.48;212787;1275;65717;-72
2024/01/28 15:19:11;;;;;;;10.50;8.40;;;;;;;4.01;88.27;102602.05;212802;1275;61408;-72
2024/01/28 15:24:04;;;;;;;14.40;9.00;;;;;;;3.98;88.34;102608.31;212964;1276;77429;-72
2024/01/28 15:28:57;;;;;;;14.10;9.10;;;;;;;3.94;88.35;102609.93;212720;1275;61409;-72
2024/01/28 15:33:52;;;;;;;11.80;8.60;;;;;;;3.90;88.55;102612.00;212790;1276;61319;-72
2024/01/28 15:38:47;;;;;;;10.90;9.40;;;;;;;3.85;88.80;102621.27;212806;1277;65878;-72
2024/01/28 15:43:44;;;;;;;12.00;8.70;;;;;;;3.81;88.91;102628.19;212812;1277;61415;-72
2024/01/28 15:48:40;;;;;;;14.60;9.40;;;;;;;3.78;89.06;102627.16;212922;1276;73243;-73
2024/01/28 15:53:33;;;;;;;13.40;9.80;;;;;;;3.76;89.07;102623.57;212676;1277;72550;-73
2024/01/28 15:58:27;;;;;;;12.40;9.00;;;;;;;3.72;89.15;102617.08;212768;1276;61401;-71
2024/01/28 16:03:20;;;;;;;16.70;9.00;;;;;;;3.69;89.21;102616.85;212804;1277;66480;-72
2024/01/28 16:08:13;;;;;;;11.50;8.90;;;;;;;3.67;89.29;102610.00;212907;1276;61332;-72
2024/01/28 16:13:06;;;;;;;17.90;10.90;;;;;;;3.66;89.42;102614.35;212779;1278;74370;-72
2024/01/28 16:18:00;;;;;;;20.80;11.30;;;;;;;3.65;89.43;102622.17;212747;1278;61397;-72
2024/01/28 16:22:54;;;;;;;16.80;11.90;;;;;;;3.63;89.20;102622.70;212542;1276;61416;-70
2024/01/28 16:28:14;;;;;;;18.10;10.60;;;;;;;3.61;89.43;102621.55;212615;1276;67132;-71
2024/01/28 16:33:08;;;;;;;19.10;11.20;;;;;;;3.60;89.51;102628.34;212472;1275;61326;-72
2024/01/28 16:38:02;;;;;;;16.30;11.10;;;;;;;3.59;89.70;102641.27;212772;1276;74584;-72
2024/01/28 16:42:55;;;;;;;18.60;13.30;;;;;;;3.57;89.37;102647.65;212612;1277;71413;-70
2024/01/28 16:47:48;;;;;;;20.70;11.40;;;;;;;3.55;89.59;102651.77;212599;1279;63284;-70
2024/01/28 16:52:42;;;;;;;17.00;11.80;;;;;;;3.53;89.68;102653.86;212490;1276;66354;-70
2024/01/28 16:57:35;;;;;;;15.20;10.50;;;;;;;3.50;89.56;102662.02;212614;1275;61315;-71
2024/01/28 17:02:28;;;;;;;17.60;12.30;;;;;;;3.49;89.84;102666.04;212748;1279;73192;-71
2024/01/28 17:07:20;;;;;;;16.00;10.60;;;;;;;3.47;89.70;102673.93;212604;1276;61378;-70
2024/01/28 17:12:17;;;;;;;16.20;11.60;;;;;;;3.44;89.55;102673.43;212750;1277;61374;-71
2024/01/28 17:17:14;;;;;;;15.90;12.30;;;;;;;3.42;89.77;102675.30;212627;1276;66031;-71
2024/01/28 17:22:07;;;;;;;16.40;12.50;;;;;;;3.40;89.84;102680.67;212519;1279;61314;-72
2024/01/28 17:27:01;;;;;;;15.60;11.60;;;;;;;3.38;89.85;102684.80;212435;1278;72579;-71
2024/01/28 17:31:54;;;;;;;20.20;12.50;;;;;;;3.35;90.03;102683.16;212706;1276;72278;-71
2024/01/28 17:36:47;;;;;;;20.00;12.30;;;;;;;3.36;90.06;102688.91;212794;1279;61313;-71
2024/01/28 17:41:40;;;;;;;16.90;12.20;;;;;;;3.35;90.05;102681.66;212863;1276;65929;-71
2024/01/28 17:46:33;;;;;;;17.10;12.20;;;;;;;3.34;89.74;102692.66;212836;1276;61312;-71
2024/01/28 17:51:27;;;;;;;18.00;11.50;;;;;;;3.31;89.86;102691.60;212807;1276;73562;-71
2024/01/28 17:56:19;;;;;;;15.50;11.60;;;;;;;3.28;89.97;102685.67;212606;1276;72994;-72
2024/01/28 18:01:12;;;;;;;16.40;12.70;;;;;;;3.26;90.10;102688.13;212597;1276;61336;-71
2024/01/28 18:06:06;;;;;;;18.90;12.10;;;;;;;3.24;89.93;102681.30;212671;1276;61327;-73
2024/01/28 18:10:59;;;;;;;21.10;14.70;;;;;;;3.22;90.02;102678.36;212727;1276;61311;-70
2024/01/28 18:15:52;;;;;;;20.30;13.40;;;;;;;3.20;89.85;102676.33;212874;1276;75001;-71
2024/01/28 18:20:49;;;;;;;22.00;12.90;;;;;;;3.19;89.97;102674.01;212731;1276;73485;-71
2024/01/28 18:25:43;;;;;;;19.10;12.70;;;;;;;3.19;90.20;102677.14;212719;1276;61387;-71
2024/01/28 18:30:37;;;;;;;18.00;13.10;;;;;;;3.18;90.17;102672.11;212656;1276;66947;-71
2024/01/28 18:35:31;;;;;;;18.80;12.80;;;;;;;3.16;89.94;102684.38;212783;1276;61380;-71
2024/01/28 18:40:24;;;;;;;19.60;14.90;;;;;;;3.14;90.10;102691.99;212695;1277;61314;-71
2024/01/28 18:45:17;;;;;;;26.60;17.90;;;;;;;3.16;90.32;102691.24;212729;1279;71456;-70
2024/01/28 18:50:10;;;;;;;27.20;17.80;;;;;;;3.16;90.19;102694.69;212687;1277;61393;-70
2024/01/28 18:55:03;;;;;;;26.20;18.60;;;;;;;3.16;90.22;102704.12;212858;1279;65889;-70
2024/01/28 18:59:56;;;;;;;25.60;17.50;;;;;;;3.16;90.33;102707.21;212735;1275;61330;-70
2024/01/28 19:04:49;;;;;;;28.50;20.00;;;;;;;3.16;90.32;102704.33;212701;1279;61252;-70
2024/01/28 19:09:42;;;;;;;27.60;19.30;;;;;;;3.17;90.54;102697.70;212660;1279;61339;-71
2024/01/28 19:14:35;;;;;;;28.50;19.90;;;;;;;3.17;90.68;102695.80;212683;1276;61609;-71
2024/01/28 19:19:27;;;;;;;29.10;21.20;;;;;;;3.16;90.56;102694.86;212685;1276;61297;-71
2024/01/28 19:24:21;;;;;;;30.50;20.70;;;;;;;3.14;90.36;102691.08;212721;1276;61958;-70
2024/01/28 19:29:14;;;;;;;29.10;21.70;;;;;;;3.12;90.31;102693.04;212594;1279;61320;-71
2024/01/28 19:34:09;;;;;;;27.50;18.70;;;;;;;3.12;90.22;102687.67;212774;1276;61281;-71
2024/01/28 19:39:12;;;;;;;25.70;17.20;;;;;;;3.12;90.42;102683.55;212698;1276;61444;-71
2024/01/28 19:44:05;;;;;;;24.60;17.60;;;;;;;3.11;90.40;102682.49;212774;1275;65538;-70
2024/01/28 19:48:58;;;;;;;24.80;17.90;;;;;;;3.09;90.37;102687.66;212719;1274;61301;-71
2024/01/28 19:53:51;;;;;;;23.00;15.60;;;;;;;3.08;90.28;102686.66;212719;1276;73366;-71
2024/01/28 19:58:46;;;;;;;27.30;18.30;;;;;;;3.05;90.42;102686.87;212687;1277;71475;-71
2024/01/28 20:03:39;;;;;;;22.60;16.70;;;;;;;3.04;90.52;102690.58;212624;1276;61294;-72
2024/01/28 20:08:34;;;;;;;23.00;17.40;;;;;;;3.04;90.48;102695.00;212671;1275;67081;-72
2024/01/28 20:13:27;;;;;;;28.70;19.70;;;;;;;3.02;90.35;102700.34;212606;1277;61289;-72
2024/01/28 20:18:22;;;;;;;26.60;18.40;;;;;;;3.02;90.32;102718.84;212643;1276;61422;-72
2024/01/28 20:23:18;;;;;;;25.70;18.80;;;;;;;3.02;90.45;102713.19;212833;1276;71472;-71
2024/01/28 20:28:12;;;;;;;26.50;19.00;;;;;;;3.01;90.64;102714.98;212764;1277;61408;-71
2024/01/28 20:33:05;;;;;;;25.40;18.10;;;;;;;3.01;90.49;102720.42;212651;1276;65872;-71
2024/01/28 20:37:58;;;;;;;24.40;18.10;;;;;;;3.00;90.27;102728.40;212792;1276;61396;-71
2024/01/28 20:42:51;;;;;;;27.30;19.40;;;;;;;2.96;90.26;102725.57;212945;1277;72453;-71
2024/01/28 20:47:45;;;;;;;25.40;18.50;;;;;;;2.97;90.48;102726.80;212662;1276;73494;-71
2024/01/28 20:52:38;;;;;;;27.00;18.30;;;;;;;2.97;90.39;102713.27;212769;1277;61303;-71
2024/01/28 20:57:31;;;;;;;28.40;19.30;;;;;;;2.95;90.42;102700.98;212752;1277;71019;-71
2024/01/28 21:02:24;;;;;;;29.10;21.60;;;;;;;2.94;90.34;102694.02;212732;1276;61291;-71
2024/01/28 21:07:16;;;;;;;30.90;19.70;;;;;;;2.92;90.36;102687.73;212835;1276;61381;-71
2024/01/28 21:12:10;;;;;;;26.90;19.70;;;;;;;2.91;90.19;102665.48;212699;1277;62302;-71
2024/01/28 21:17:02;;;;;;;27.50;19.90;;;;;;;2.89;90.19;102662.64;212693;1279;61310;-71
2024/01/28 21:21:55;;;;;;;34.10;21.70;;;;;;;2.89;90.41;102660.73;212638;1276;61420;-72
2024/01/28 21:26:51;;;;;;;27.20;20.30;;;;;;;2.89;90.36;102672.89;212603;1276;61405;-71
2024/01/28 21:31:44;;;;;;;30.60;22.60;;;;;;;2.90;90.44;102679.67;212790;1276;73806;-70
2024/01/28 21:36:37;;;;;;;25.90;20.70;;;;;;;2.90;90.25;102690.59;212529;1275;61288;-71
2024/01/28 21:41:29;;;;;;;33.80;22.00;;;;;;;2.91;90.23;102695.45;212592;1276;61633;-71
2024/01/28 21:46:22;;;;;;;26.70;20.10;;;;;;;2.90;90.29;102692.11;212623;1278;61761;-70
2024/01/28 21:51:15;;;;;;;26.70;21.70;;;;;;;2.89;90.45;102694.09;212757;1277;61417;-71
2024/01/28 21:56:12;;;;;;;26.40;21.90;;;;;;;2.88;90.54;102708.83;212686;1275;73451;-71
2024/01/28 22:01:05;;;;;;;28.60;21.10;;;;;;;2.88;90.44;102717.37;212573;1276;61393;-71
2024/01/28 22:05:58;;;;;;;28.70;20.50;;;;;;;2.87;90.46;102719.66;212608;1277;61322;-71
2024/01/28 22:10:53;;;;;;;30.50;21.10;;;;;;;2.86;90.27;102725.90;212767;1277;66769;-70
2024/01/28 22:15:45;;;;;;;33.90;21.40;;;;;;;2.85;90.43;102734.30;212669;1275;61278;-71
2024/01/28 22:20:38;;;;;;;30.20;21.30;;;;;;;2.84;90.39;102732.23;212551;1277;61287;-71
2024/01/28 22:25:31;;;;;;;29.90;20.10;;;;;;;2.81;90.27;102727.61;212695;1277;61311;-71
2024/01/28 22:30:24;;;;;;;30.00;21.90;;;;;;;2.77;90.26;102725.52;212666;1276;61328;-71
2024/01/28 22:35:17;;;;;;;27.50;20.70;;;;;;;2.77;90.78;102729.16;212574;1279;61955;-71